Time;durP1;ratioP1;P1;durP2;ratioP2;P2;SDS_P1;SDS_P2;PMS_P1;PMS_P2;Temp;Humidity;BMP_temperature;BMP_pressure;BME280_temperature;BME280_humidity;BME280_pressure;Samples;Min_cycle;Max_cycle;Signal;HPM_P1;HPM_P2
2023/01/07 00:01:11;;;;;;;0.60;0.60;;;11.10;99.90;;;;;;4966093;28;20961;-82
2023/01/07 00:03:38;;;;;;;0.60;0.60;;;11.10;99.90;;;;;;4943630;28;20066;-82
2023/01/07 00:06:15;;;;;;;0.60;0.60;;;11.00;99.90;;;;;;4958389;28;20929;-82
2023/01/07 00:08:44;;;;;;;0.55;0.55;;;11.10;99.90;;;;;;4955784;28;20264;-82
2023/01/07 00:11:14;;;;;;;0.50;0.50;;;11.10;99.90;;;;;;4937587;28;20057;-82
2023/01/07 00:13:40;;;;;;;0.50;0.50;;;11.30;99.90;;;;;;4958061;28;20091;-82
2023/01/07 00:16:11;;;;;;;0.57;0.57;;;11.20;99.90;;;;;;4951046;28;20526;-82
2023/01/07 00:18:37;;;;;;;0.60;0.60;;;11.20;99.90;;;;;;4974616;28;20052;-82
2023/01/07 00:21:06;;;;;;;0.50;0.50;;;11.20;99.90;;;;;;4932503;28;20056;-82
2023/01/07 00:23:34;;;;;;;0.50;0.50;;;11.10;99.90;;;;;;4948503;28;20066;-82
2023/01/07 00:26:06;;;;;;;0.50;0.50;;;11.20;99.90;;;;;;4959390;28;20444;-83
2023/01/07 00:28:34;;;;;;;0.50;0.50;;;11.30;99.90;;;;;;4968967;28;20044;-82
2023/01/07 00:31:05;;;;;;;0.60;0.60;;;11.30;99.90;;;;;;4973104;28;20045;-82
2023/01/07 00:33:34;;;;;;;0.50;0.50;;;11.20;99.90;;;;;;4965468;28;20613;-82
2023/01/07 00:36:08;;;;;;;0.60;0.60;;;11.30;99.90;;;;;;4957226;28;20053;-83
2023/01/07 00:38:35;;;;;;;0.50;0.50;;;11.20;99.90;;;;;;4963688;28;20105;-82
2023/01/07 00:41:02;;;;;;;0.50;0.50;;;11.30;99.90;;;;;;4964213;28;20109;-83
2023/01/07 00:43:28;;;;;;;0.50;0.50;;;11.40;99.90;;;;;;4972279;28;20501;-83
2023/01/07 00:45:54;;;;;;;0.52;0.52;;;11.40;99.90;;;;;;4969690;28;20339;-82
2023/01/07 00:48:22;;;;;;;0.60;0.60;;;11.40;99.90;;;;;;4980106;28;20542;-83
2023/01/07 00:50:50;;;;;;;0.50;0.50;;;11.30;99.90;;;;;;4963020;28;21024;-82
2023/01/07 00:53:17;;;;;;;0.50;0.50;;;11.40;99.90;;;;;;4988439;28;20055;-82
2023/01/07 00:55:43;;;;;;;0.52;0.52;;;11.30;99.90;;;;;;4964773;28;20044;-82
2023/01/07 00:58:22;;;;;;;0.55;0.55;;;11.30;99.90;;;;;;4958647;28;20247;-83
2023/01/07 01:00:48;;;;;;;0.50;0.50;;;11.30;99.90;;;;;;4973878;28;20217;-82
2023/01/07 01:03:15;;;;;;;0.50;0.50;;;11.40;99.90;;;;;;4976966;28;20093;-81
2023/01/07 01:05:41;;;;;;;0.60;0.60;;;11.40;99.90;;;;;;4957427;28;20910;-82
2023/01/07 01:08:08;;;;;;;0.60;0.60;;;11.30;99.90;;;;;;4967696;28;20053;-82
2023/01/07 01:10:33;;;;;;;0.50;0.50;;;11.40;99.90;;;;;;4972943;28;21001;-82
2023/01/07 01:13:00;;;;;;;0.60;0.60;;;11.40;99.90;;;;;;4944122;28;20056;-81
2023/01/07 01:15:26;;;;;;;0.52;0.52;;;11.30;99.90;;;;;;4964142;28;20582;-81
2023/01/07 01:17:52;;;;;;;0.60;0.60;;;11.40;99.90;;;;;;4948431;28;20048;-82
2023/01/07 01:20:18;;;;;;;0.60;0.60;;;11.30;99.90;;;;;;4981850;28;20041;-82
2023/01/07 01:22:44;;;;;;;0.60;0.60;;;11.50;99.90;;;;;;4944220;28;20041;-82
2023/01/07 01:25:11;;;;;;;0.50;0.50;;;11.30;99.90;;;;;;4963043;28;20049;-82
2023/01/07 01:27:37;;;;;;;0.60;0.60;;;11.40;99.90;;;;;;4956809;28;20835;-82
2023/01/07 01:30:05;;;;;;;0.50;0.50;;;11.50;99.90;;;;;;4965302;28;20053;-82
2023/01/07 01:32:31;;;;;;;0.60;0.60;;;11.40;99.90;;;;;;4958242;28;20064;-83
2023/01/07 01:34:57;;;;;;;0.60;0.60;;;11.40;99.90;;;;;;4970421;28;20045;-83
2023/01/07 01:37:23;;;;;;;0.50;0.50;;;11.30;99.90;;;;;;4964921;28;20045;-82
2023/01/07 01:39:49;;;;;;;0.50;0.50;;;11.40;99.90;;;;;;4962324;28;20864;-82
2023/01/07 01:42:23;;;;;;;0.50;0.50;;;11.40;99.90;;;;;;4988719;28;20811;-81
2023/01/07 01:44:55;;;;;;;0.50;0.50;;;11.50;99.90;;;;;;4952893;28;20694;-83
2023/01/07 01:47:27;;;;;;;0.60;0.60;;;11.40;99.90;;;;;;4969919;28;21134;-83
2023/01/07 01:50:19;;;;;;;0.60;0.60;;;11.40;99.90;;;;;;4951601;28;20408;-83
2023/01/07 01:53:00;;;;;;;0.50;0.50;;;11.50;99.90;;;;;;4966429;28;20052;-82
2023/01/07 01:55:33;;;;;;;0.50;0.50;;;11.50;99.90;;;;;;4953706;28;20049;-83
2023/01/07 01:58:03;;;;;;;0.60;0.60;;;11.50;99.90;;;;;;4950718;28;20045;-83
2023/01/07 02:00:31;;;;;;;0.50;0.50;;;11.30;99.90;;;;;;4954746;28;20608;-83
2023/01/07 02:02:58;;;;;;;0.57;0.57;;;11.50;99.90;;;;;;4973407;28;20049;-83
2023/01/07 02:05:38;;;;;;;0.50;0.50;;;11.30;99.90;;;;;;4980151;28;20048;-83
2023/01/07 02:08:04;;;;;;;0.50;0.50;;;11.40;99.90;;;;;;4950696;28;20054;-84
2023/01/07 02:10:31;;;;;;;0.60;0.60;;;11.40;99.90;;;;;;4949580;28;20048;-83
2023/01/07 02:13:10;;;;;;;0.50;0.50;;;11.50;99.90;;;;;;4961946;28;20049;-83
2023/01/07 02:15:46;;;;;;;0.60;0.60;;;11.50;99.90;;;;;;4950902;28;20086;-83
2023/01/07 02:18:39;;;;;;;0.60;0.60;;;11.30;99.90;;;;;;4939078;28;20056;-83
2023/01/07 02:21:20;;;;;;;0.50;0.50;;;11.50;99.90;;;;;;4977845;28;20537;-83
2023/01/07 02:24:05;;;;;;;0.60;0.60;;;11.30;99.90;;;;;;4958873;28;20138;-83
2023/01/07 02:27:02;;;;;;;0.50;0.50;;;11.40;99.90;;;;;;4953059;28;20372;-83
2023/01/07 02:30:02;;;;;;;0.50;0.50;;;11.30;99.90;;;;;;4957606;28;20548;-82
2023/01/07 02:32:43;;;;;;;0.50;0.50;;;11.40;99.90;;;;;;4960240;28;20061;-83
2023/01/07 02:35:20;;;;;;;0.50;0.50;;;11.40;99.90;;;;;;4957507;28;20159;-83
2023/01/07 02:38:00;;;;;;;0.50;0.50;;;11.30;99.90;;;;;;4976148;28;20773;-83
2023/01/07 02:40:30;;;;;;;0.50;0.50;;;11.30;99.90;;;;;;4958167;28;20869;-83
2023/01/07 02:42:58;;;;;;;0.50;0.50;;;11.40;99.90;;;;;;4956069;28;20075;-82
2023/01/07 02:45:57;;;;;;;0.50;0.50;;;11.40;99.90;;;;;;4983972;28;20557;-82
2023/01/07 02:48:24;;;;;;;0.50;0.50;;;11.40;99.90;;;;;;4908150;28;20054;-83
2023/01/07 02:50:50;;;;;;;0.60;0.60;;;11.40;99.90;;;;;;4966487;28;20502;-82
2023/01/07 02:53:18;;;;;;;0.50;0.50;;;11.40;99.90;;;;;;4951199;28;20060;-82
2023/01/07 02:56:10;;;;;;;0.60;0.60;;;11.20;99.90;;;;;;4963489;28;20290;-82
2023/01/07 02:58:54;;;;;;;0.60;0.60;;;11.40;99.90;;;;;;4962732;28;20499;-82
2023/01/07 03:01:41;;;;;;;0.50;0.50;;;11.40;99.90;;;;;;4959947;28;20976;-81
2023/01/07 03:04:32;;;;;;;0.50;0.50;;;11.40;99.90;;;;;;4956804;28;20979;-82
2023/01/07 03:07:20;;;;;;;0.50;0.50;;;11.30;99.90;;;;;;4963039;28;20589;-82
2023/01/07 03:10:11;;;;;;;0.50;0.50;;;11.40;99.90;;;;;;4959619;28;20565;-82
2023/01/07 03:12:47;;;;;;;0.50;0.50;;;11.30;99.90;;;;;;4963298;28;20594;-82
2023/01/07 03:15:21;;;;;;;0.50;0.50;;;11.20;99.90;;;;;;4951191;28;20141;-82
2023/01/07 03:18:16;;;;;;;0.50;0.50;;;11.30;99.90;;;;;;4972291;28;20822;-83
2023/01/07 03:20:46;;;;;;;0.60;0.60;;;11.30;99.90;;;;;;4962816;28;20884;-82
2023/01/07 03:23:14;;;;;;;0.50;0.50;;;11.20;99.90;;;;;;4950995;28;20649;-82
2023/01/07 03:25:43;;;;;;;0.60;0.60;;;11.10;99.90;;;;;;4957059;28;20041;-82
2023/01/07 03:28:11;;;;;;;0.50;0.50;;;11.10;99.90;;;;;;4973713;28;20801;-82
2023/01/07 03:30:37;;;;;;;0.50;0.50;;;11.20;99.90;;;;;;4953402;28;20053;-82
2023/01/07 03:33:15;;;;;;;0.60;0.60;;;11.10;99.90;;;;;;4970189;28;20045;-82
2023/01/07 03:35:44;;;;;;;0.50;0.50;;;11.20;99.90;;;;;;4963624;28;20147;-81
2023/01/07 03:38:11;;;;;;;0.50;0.50;;;11.20;99.90;;;;;;4972994;28;20037;-81
2023/01/07 03:40:37;;;;;;;0.50;0.50;;;11.20;99.90;;;;;;4953205;28;20446;-82
2023/01/07 03:43:04;;;;;;;0.60;0.60;;;11.10;99.90;;;;;;4957016;28;20447;-81
2023/01/07 03:45:30;;;;;;;0.50;0.50;;;11.10;99.90;;;;;;4949470;28;20127;-81
2023/01/07 03:47:57;;;;;;;0.50;0.50;;;11.20;99.90;;;;;;4957158;28;20056;-81
2023/01/07 03:50:23;;;;;;;0.50;0.50;;;11.20;99.90;;;;;;4959935;28;20457;-81
2023/01/07 03:52:49;;;;;;;0.50;0.50;;;11.10;99.90;;;;;;4976811;28;20045;-81
2023/01/07 03:55:16;;;;;;;0.57;0.57;;;11.10;99.90;;;;;;4949884;28;20076;-81
2023/01/07 03:57:42;;;;;;;0.50;0.50;;;11.20;99.90;;;;;;4958249;28;20076;-81
2023/01/07 04:00:10;;;;;;;0.50;0.50;;;11.20;99.90;;;;;;4968559;28;20183;-81
2023/01/07 04:02:36;;;;;;;0.60;0.60;;;11.10;99.90;;;;;;4975376;28;20088;-81
2023/01/07 04:05:03;;;;;;;0.60;0.60;;;11.20;99.90;;;;;;4967212;28;20059;-81
2023/01/07 04:07:28;;;;;;;0.60;0.60;;;11.20;99.90;;;;;;4955795;28;20048;-81
2023/01/07 04:09:54;;;;;;;0.50;0.50;;;11.20;99.90;;;;;;4949653;28;20044;-80
2023/01/07 04:12:20;;;;;;;0.50;0.50;;;11.20;99.90;;;;;;4978393;28;20155;-81
2023/01/07 04:14:46;;;;;;;0.50;0.50;;;11.10;99.90;;;;;;4954656;28;20068;-80
2023/01/07 04:17:12;;;;;;;0.60;0.60;;;11.10;99.90;;;;;;4948791;28;20056;-81
2023/01/07 04:19:38;;;;;;;0.50;0.50;;;11.20;99.90;;;;;;4955237;28;20525;-81
2023/01/07 04:22:06;;;;;;;0.50;0.50;;;11.10;99.90;;;;;;4954634;28;20196;-81
2023/01/07 04:24:32;;;;;;;0.50;0.50;;;11.10;99.90;;;;;;4953256;28;20986;-81
2023/01/07 04:26:58;;;;;;;0.50;0.50;;;11.10;99.90;;;;;;4956327;28;20088;-81
2023/01/07 04:29:24;;;;;;;0.57;0.57;;;11.10;99.90;;;;;;4973463;28;20479;-81
2023/01/07 04:31:50;;;;;;;0.60;0.60;;;11.00;99.90;;;;;;4951485;28;20580;-81
2023/01/07 04:34:16;;;;;;;0.60;0.60;;;11.10;99.90;;;;;;4974399;28;20080;-81
2023/01/07 04:36:42;;;;;;;0.50;0.50;;;11.10;99.90;;;;;;4946613;28;20076;-81
2023/01/07 04:39:08;;;;;;;0.50;0.50;;;11.10;99.90;;;;;;4958346;28;20541;-81
2023/01/07 04:41:34;;;;;;;0.50;0.50;;;11.00;99.90;;;;;;4960752;28;20628;-81
2023/01/07 04:43:59;;;;;;;0.50;0.50;;;11.00;99.90;;;;;;4975807;28;20525;-81
2023/01/07 04:46:26;;;;;;;0.50;0.50;;;11.00;99.90;;;;;;4949050;28;20049;-82
2023/01/07 04:48:51;;;;;;;0.50;0.50;;;10.90;99.90;;;;;;4972328;28;20810;-81
2023/01/07 04:51:19;;;;;;;0.57;0.57;;;11.00;99.90;;;;;;4970655;28;20053;-82
2023/01/07 04:53:46;;;;;;;0.50;0.50;;;10.90;99.90;;;;;;4966025;28;20045;-82
2023/01/07 04:56:11;;;;;;;0.50;0.50;;;10.90;99.90;;;;;;4955656;28;20109;-82
2023/01/07 04:58:39;;;;;;;0.60;0.60;;;10.90;99.90;;;;;;4972150;28;20052;-81
2023/01/07 05:01:05;;;;;;;0.50;0.50;;;11.00;99.90;;;;;;4957325;28;20114;-81
2023/01/07 05:03:35;;;;;;;0.50;0.50;;;10.90;99.90;;;;;;4973124;28;20799;-82
2023/01/07 05:06:02;;;;;;;0.50;0.50;;;10.90;99.90;;;;;;4948160;28;20045;-81
2023/01/07 05:08:28;;;;;;;0.50;0.50;;;10.80;99.90;;;;;;4963650;28;20051;-81
2023/01/07 05:10:54;;;;;;;0.60;0.60;;;10.80;99.90;;;;;;4960362;28;21074;-81
2023/01/07 05:13:22;;;;;;;0.50;0.50;;;10.80;99.90;;;;;;4976997;28;20063;-81
2023/01/07 05:15:48;;;;;;;0.50;0.50;;;10.80;99.90;;;;;;4951883;28;20064;-81
2023/01/07 05:18:16;;;;;;;0.50;0.50;;;10.70;99.90;;;;;;4959726;28;20515;-81
2023/01/07 05:20:42;;;;;;;0.50;0.50;;;10.70;99.90;;;;;;4976429;28;20048;-81
2023/01/07 05:23:07;;;;;;;0.50;0.50;;;10.70;99.90;;;;;;4956755;28;20965;-81
2023/01/07 05:25:34;;;;;;;0.60;0.60;;;10.70;99.90;;;;;;4952051;28;20049;-81
2023/01/07 05:28:00;;;;;;;0.52;0.52;;;10.70;99.90;;;;;;4971322;28;20188;-81
2023/01/07 05:30:27;;;;;;;0.60;0.60;;;10.60;99.90;;;;;;4952535;28;20447;-81
2023/01/07 05:32:53;;;;;;;0.52;0.52;;;10.60;99.90;;;;;;4958813;28;20644;-81
2023/01/07 05:35:19;;;;;;;0.50;0.50;;;10.50;99.90;;;;;;4934539;28;20482;-81
2023/01/07 05:37:45;;;;;;;0.50;0.50;;;10.40;99.90;;;;;;4944989;28;20041;-81
2023/01/07 05:40:11;;;;;;;0.60;0.60;;;10.50;99.90;;;;;;4959390;28;20071;-80
2023/01/07 05:42:37;;;;;;;0.50;0.50;;;10.40;99.90;;;;;;4959553;28;20155;-81
2023/01/07 05:45:04;;;;;;;0.50;0.50;;;10.30;99.90;;;;;;4943416;28;20049;-81
2023/01/07 05:47:31;;;;;;;0.60;0.60;;;10.30;99.90;;;;;;4943516;28;20559;-81
2023/01/07 05:49:57;;;;;;;0.60;0.60;;;10.30;99.90;;;;;;4966541;28;20040;-81
2023/01/07 05:52:23;;;;;;;0.50;0.50;;;10.30;99.90;;;;;;4941600;28;20041;-81
2023/01/07 05:54:49;;;;;;;0.50;0.50;;;10.30;99.90;;;;;;4966519;28;20639;-81
2023/01/07 05:57:15;;;;;;;0.50;0.50;;;10.20;99.90;;;;;;4972518;28;20403;-81
2023/01/07 05:59:40;;;;;;;0.50;0.50;;;10.20;99.90;;;;;;4947046;28;20492;-81
2023/01/07 06:02:06;;;;;;;0.50;0.50;;;10.00;99.90;;;;;;4945247;28;20413;-81
2023/01/07 06:04:33;;;;;;;0.50;0.50;;;10.00;99.90;;;;;;4957172;28;20451;-80
2023/01/07 06:06:59;;;;;;;0.50;0.50;;;10.10;99.90;;;;;;4964891;28;20144;-80
2023/01/07 06:09:28;;;;;;;0.50;0.50;;;10.10;99.90;;;;;;4965957;28;20549;-81
2023/01/07 06:11:54;;;;;;;0.50;0.50;;;10.00;99.90;;;;;;4947475;28;20258;-81
2023/01/07 06:14:20;;;;;;;0.50;0.50;;;10.20;99.90;;;;;;4962094;28;20044;-81
2023/01/07 06:16:46;;;;;;;0.50;0.50;;;10.10;99.90;;;;;;4973987;28;20117;-81
2023/01/07 06:19:12;;;;;;;0.50;0.50;;;10.00;99.90;;;;;;4966534;28;20087;-81
2023/01/07 06:21:37;;;;;;;5.10;4.90;;;10.00;99.90;;;;;;4954119;28;20052;-81
2023/01/07 06:24:04;;;;;;;0.50;0.50;;;10.00;99.90;;;;;;4949412;28;20844;-81
2023/01/07 06:26:30;;;;;;;0.50;0.50;;;10.00;99.90;;;;;;4949501;28;20041;-81
2023/01/07 06:28:55;;;;;;;0.50;0.50;;;10.00;99.90;;;;;;4957228;28;20608;-81
2023/01/07 06:31:21;;;;;;;0.50;0.50;;;10.00;99.90;;;;;;4944191;28;20084;-80
2023/01/07 06:33:47;;;;;;;0.50;0.50;;;10.10;99.90;;;;;;4945906;28;20088;-81
2023/01/07 06:36:13;;;;;;;0.50;0.50;;;10.00;99.90;;;;;;4950225;28;20044;-80
2023/01/07 06:38:40;;;;;;;0.50;0.50;;;10.10;99.90;;;;;;4973268;28;20048;-80
2023/01/07 06:41:07;;;;;;;0.50;0.50;;;10.00;99.90;;;;;;4933868;28;20907;-81
2023/01/07 06:43:33;;;;;;;0.50;0.50;;;10.10;99.90;;;;;;4957782;28;20597;-80
2023/01/07 06:45:59;;;;;;;0.50;0.50;;;10.10;99.90;;;;;;4949349;28;20037;-80
2023/01/07 06:48:25;;;;;;;0.50;0.50;;;9.90;99.90;;;;;;4964546;28;20792;-81
2023/01/07 06:50:50;;;;;;;1.45;1.42;;;9.90;99.90;;;;;;4959007;28;20087;-80
2023/01/07 06:53:16;;;;;;;0.50;0.50;;;10.00;99.90;;;;;;4948138;28;20110;-81
2023/01/07 06:55:48;;;;;;;0.52;0.52;;;10.00;99.90;;;;;;4965227;28;20521;-81
2023/01/07 06:58:14;;;;;;;0.50;0.50;;;10.00;99.90;;;;;;4945732;28;20585;-80
2023/01/07 07:00:40;;;;;;;0.50;0.50;;;10.00;99.90;;;;;;4980904;28;20128;-80
2023/01/07 07:03:06;;;;;;;0.50;0.50;;;9.90;99.90;;;;;;4962517;28;20504;-81
2023/01/07 07:05:32;;;;;;;0.50;0.50;;;10.00;99.90;;;;;;4947619;28;20045;-81
2023/01/07 07:07:59;;;;;;;0.50;0.50;;;9.90;99.90;;;;;;4965966;28;20120;-81
2023/01/07 07:10:25;;;;;;;0.50;0.50;;;10.00;99.90;;;;;;4950789;28;20785;-80
2023/01/07 07:12:51;;;;;;;0.50;0.50;;;9.90;99.90;;;;;;4940736;28;20052;-80
2023/01/07 07:15:18;;;;;;;0.50;0.50;;;9.90;99.90;;;;;;4910017;28;20060;-81
2023/01/07 07:17:44;;;;;;;0.50;0.50;;;9.90;99.90;;;;;;4953428;28;20072;-81
2023/01/07 07:20:11;;;;;;;0.50;0.50;;;9.90;99.90;;;;;;4924618;28;20160;-81
2023/01/07 07:22:37;;;;;;;0.50;0.50;;;9.80;99.90;;;;;;4927377;28;20407;-81
2023/01/07 07:25:03;;;;;;;0.60;0.60;;;9.80;99.90;;;;;;4931706;28;20624;-81
2023/01/07 07:27:29;;;;;;;0.50;0.50;;;9.80;99.90;;;;;;4906596;28;20050;-81
2023/01/07 07:29:55;;;;;;;0.50;0.50;;;9.80;99.90;;;;;;4918138;28;20062;-81
2023/01/07 07:32:27;;;;;;;0.50;0.50;;;9.80;99.90;;;;;;4939852;28;20528;-80
2023/01/07 07:34:54;;;;;;;0.50;0.50;;;9.80;99.90;;;;;;4936931;28;20534;-80
2023/01/07 07:37:19;;;;;;;0.50;0.50;;;9.90;99.90;;;;;;4909652;28;20225;-81
2023/01/07 07:39:45;;;;;;;0.52;0.52;;;10.00;99.90;;;;;;4933444;28;20421;-81
2023/01/07 07:42:11;;;;;;;0.60;0.60;;;10.00;99.90;;;;;;4928544;28;20484;-81
2023/01/07 07:44:37;;;;;;;0.50;0.50;;;10.00;99.90;;;;;;4918717;28;20053;-81
2023/01/07 07:47:04;;;;;;;0.50;0.50;;;10.00;99.90;;;;;;4926680;28;20053;-81
2023/01/07 07:49:30;;;;;;;0.50;0.50;;;10.00;99.90;;;;;;4935390;28;20060;-81
2023/01/07 07:51:56;;;;;;;0.60;0.60;;;10.10;99.90;;;;;;4933041;28;20555;-81
2023/01/07 07:54:22;;;;;;;0.50;0.50;;;10.10;99.90;;;;;;4929934;28;20130;-81
2023/01/07 07:56:48;;;;;;;0.50;0.50;;;10.10;99.90;;;;;;4922807;28;20572;-80
2023/01/07 07:59:14;;;;;;;0.60;0.60;;;10.10;99.90;;;;;;4933791;28;20484;-81
2023/01/07 08:01:40;;;;;;;0.50;0.50;;;10.10;99.90;;;;;;4925706;28;20056;-80
2023/01/07 08:04:06;;;;;;;0.50;0.50;;;10.10;99.90;;;;;;4926765;28;20046;-81
2023/01/07 08:06:33;;;;;;;0.55;0.55;;;10.10;99.90;;;;;;4928673;28;20639;-81
2023/01/07 08:08:59;;;;;;;0.50;0.50;;;10.10;99.90;;;;;;4935081;28;20265;-81
2023/01/07 08:11:25;;;;;;;0.50;0.50;;;10.10;99.90;;;;;;4923224;28;20037;-80
2023/01/07 08:13:51;;;;;;;0.50;0.50;;;10.00;99.90;;;;;;4935788;28;20037;-80
2023/01/07 08:16:16;;;;;;;0.50;0.50;;;10.10;99.90;;;;;;4958260;28;20048;-80
2023/01/07 08:18:42;;;;;;;0.60;0.60;;;10.10;99.90;;;;;;4946278;28;20059;-80
2023/01/07 08:21:08;;;;;;;0.50;0.50;;;10.00;99.90;;;;;;4945066;28;20045;-80
2023/01/07 08:23:34;;;;;;;0.50;0.50;;;10.10;99.90;;;;;;4942484;28;20418;-82
2023/01/07 08:26:01;;;;;;;0.50;0.50;;;10.10;99.90;;;;;;4952565;28;20045;-80
2023/01/07 08:28:29;;;;;;;0.60;0.60;;;10.10;99.90;;;;;;4959217;28;20064;-81
2023/01/07 08:30:55;;;;;;;0.50;0.50;;;10.10;99.90;;;;;;4965002;28;20077;-80
2023/01/07 08:33:20;;;;;;;0.50;0.50;;;10.00;99.90;;;;;;4964319;28;21023;-80
2023/01/07 08:35:46;;;;;;;0.50;0.50;;;10.10;99.90;;;;;;4955379;28;20060;-81
2023/01/07 08:38:12;;;;;;;0.50;0.50;;;10.10;99.90;;;;;;4964278;28;20415;-81
2023/01/07 08:40:38;;;;;;;0.50;0.50;;;10.20;99.90;;;;;;4966342;28;20056;-80
2023/01/07 08:43:07;;;;;;;0.50;0.50;;;10.10;99.90;;;;;;4973218;28;20155;-81
2023/01/07 08:45:34;;;;;;;0.50;0.50;;;10.30;99.90;;;;;;4948974;28;20057;-81
2023/01/07 08:47:59;;;;;;;0.60;0.60;;;10.30;99.90;;;;;;4971590;28;20094;-81
2023/01/07 08:50:27;;;;;;;0.50;0.50;;;10.30;99.90;;;;;;4947100;28;20513;-81
2023/01/07 08:52:53;;;;;;;0.50;0.50;;;10.30;99.90;;;;;;4954694;28;20223;-81
2023/01/07 08:55:20;;;;;;;0.50;0.50;;;10.30;99.90;;;;;;4952385;28;20849;-81
2023/01/07 08:57:46;;;;;;;0.50;0.50;;;10.30;99.90;;;;;;4980732;28;20068;-81
2023/01/07 09:00:14;;;;;;;0.50;0.50;;;10.30;99.90;;;;;;4949665;28;20048;-81
2023/01/07 09:02:40;;;;;;;0.50;0.50;;;10.30;99.90;;;;;;4954291;28;20064;-81
2023/01/07 09:05:06;;;;;;;0.50;0.50;;;10.30;99.90;;;;;;4952620;28;20056;-82
2023/01/07 09:07:32;;;;;;;0.50;0.50;;;10.30;99.90;;;;;;4956407;28;20098;-81
2023/01/07 09:09:59;;;;;;;0.50;0.50;;;10.40;99.90;;;;;;4955348;28;20040;-80
2023/01/07 09:12:25;;;;;;;0.50;0.50;;;10.50;99.90;;;;;;4972243;28;20047;-80
2023/01/07 09:14:51;;;;;;;0.50;0.50;;;10.50;99.90;;;;;;4957010;28;20056;-81
2023/01/07 09:17:17;;;;;;;0.50;0.50;;;10.60;99.90;;;;;;4969573;28;20493;-81
2023/01/07 09:19:43;;;;;;;0.50;0.50;;;10.60;99.90;;;;;;4947534;28;21180;-80
2023/01/07 09:22:09;;;;;;;0.50;0.50;;;10.70;99.90;;;;;;4967422;28;20044;-79
2023/01/07 09:24:34;;;;;;;0.60;0.60;;;10.80;99.90;;;;;;4972666;28;20606;-82
2023/01/07 09:27:00;;;;;;;0.50;0.50;;;10.80;99.90;;;;;;4960299;28;20399;-81
2023/01/07 09:29:26;;;;;;;0.50;0.50;;;10.90;99.90;;;;;;4961020;28;20048;-80
2023/01/07 09:31:53;;;;;;;0.50;0.50;;;10.90;99.90;;;;;;4956210;28;20053;-80
2023/01/07 09:34:19;;;;;;;0.50;0.50;;;10.90;99.90;;;;;;4961404;28;20134;-81
2023/01/07 09:36:44;;;;;;;0.50;0.50;;;11.00;99.90;;;;;;4957361;28;20837;-82
2023/01/07 09:39:11;;;;;;;0.50;0.50;;;11.00;99.90;;;;;;4973365;28;20424;-79
2023/01/07 09:42:28;;;;;;;0.60;0.60;;;11.10;99.90;;;;;;4965258;28;20045;-81
2023/01/07 09:45:16;;;;;;;0.50;0.50;;;11.20;99.90;;;;;;4924799;28;20065;-80
2023/01/07 09:47:48;;;;;;;0.50;0.50;;;11.20;99.90;;;;;;4965835;28;20049;-83
2023/01/07 09:50:37;;;;;;;0.50;0.50;;;11.30;99.90;;;;;;4956766;28;20045;-82
2023/01/07 09:53:10;;;;;;;0.50;0.50;;;11.30;99.90;;;;;;4974536;28;20052;-81
2023/01/07 09:55:40;;;;;;;0.50;0.50;;;11.40;99.90;;;;;;4978794;28;20605;-81
2023/01/07 09:58:12;;;;;;;0.50;0.50;;;11.40;99.90;;;;;;4958815;28;20044;-81
2023/01/07 10:00:55;;;;;;;0.50;0.50;;;11.40;99.90;;;;;;4958460;28;20164;-80
2023/01/07 10:03:46;;;;;;;0.50;0.50;;;11.40;99.90;;;;;;4979751;28;20106;-81
2023/01/07 10:06:40;;;;;;;0.50;0.50;;;11.40;99.90;;;;;;4965731;28;20309;-81
2023/01/07 10:09:44;;;;;;;0.50;0.50;;;11.50;99.90;;;;;;4943400;28;20052;-81
2023/01/07 10:12:30;;;;;;;0.50;0.50;;;11.50;99.90;;;;;;4963618;28;20295;-81
2023/01/07 10:15:27;;;;;;;0.50;0.50;;;11.50;99.90;;;;;;4961631;28;20055;-81
2023/01/07 10:18:11;;;;;;;0.50;0.50;;;11.60;99.90;;;;;;4947090;28;20132;-81
2023/01/07 10:21:24;;;;;;;0.50;0.50;;;11.60;99.90;;;;;;4968020;28;20128;-81
2023/01/07 10:24:02;;;;;;;0.57;0.57;;;11.50;99.90;;;;;;4906089;28;20076;-80
2023/01/07 10:26:48;;;;;;;0.50;0.50;;;11.60;99.90;;;;;;4945116;28;20584;-80
2023/01/07 10:29:24;;;;;;;0.50;0.50;;;11.60;99.90;;;;;;4963001;28;20131;-81
2023/01/07 10:31:55;;;;;;;0.50;0.50;;;11.60;99.90;;;;;;4955671;28;20068;-80
2023/01/07 10:34:26;;;;;;;0.50;0.50;;;11.50;99.90;;;;;;4959857;28;21111;-80
2023/01/07 10:37:07;;;;;;;0.50;0.50;;;11.50;99.90;;;;;;4957226;28;20056;-82
2023/01/07 10:39:39;;;;;;;0.50;0.50;;;11.50;99.90;;;;;;4952483;28;20052;-81
2023/01/07 10:42:20;;;;;;;0.60;0.60;;;11.50;99.90;;;;;;4965161;28;20556;-82
2023/01/07 10:45:17;;;;;;;0.50;0.50;;;11.60;99.90;;;;;;4944712;28;20069;-81
2023/01/07 10:48:11;;;;;;;0.50;0.50;;;11.50;99.90;;;;;;4989426;28;20049;-81
2023/01/07 10:50:42;;;;;;;0.50;0.50;;;11.50;99.90;;;;;;5024978;28;20071;-81
2023/01/07 10:53:17;;;;;;;0.60;0.60;;;11.50;99.90;;;;;;5037010;28;20061;-80
2023/01/07 10:56:02;;;;;;;0.50;0.50;;;11.60;99.90;;;;;;5012158;28;20800;-80
2023/01/07 10:58:48;;;;;;;0.50;0.50;;;11.60;99.90;;;;;;4972183;28;20044;-81
2023/01/07 11:01:43;;;;;;;0.60;0.60;;;11.60;99.90;;;;;;4963654;28;20063;-81
2023/01/07 11:04:14;;;;;;;0.50;0.50;;;11.60;99.90;;;;;;4954431;28;20114;-81
2023/01/07 11:07:19;;;;;;;0.50;0.50;;;11.60;99.90;;;;;;4976042;28;20052;-81
2023/01/07 11:09:47;;;;;;;0.50;0.50;;;11.60;99.90;;;;;;4956073;28;20855;-80
2023/01/07 11:12:34;;;;;;;0.50;0.50;;;11.60;99.90;;;;;;4972743;28;20052;-80
2023/01/07 11:15:05;;;;;;;0.50;0.50;;;11.60;99.90;;;;;;4978743;28;20608;-81
2023/01/07 11:17:36;;;;;;;0.50;0.50;;;11.60;99.90;;;;;;4959552;28;20048;-81
2023/01/07 11:20:03;;;;;;;0.50;0.50;;;11.60;99.90;;;;;;4972947;28;20993;-81
2023/01/07 11:22:34;;;;;;;0.60;0.60;;;11.70;99.90;;;;;;4978405;28;20633;-81
2023/01/07 11:25:06;;;;;;;0.60;0.60;;;11.60;99.90;;;;;;4956138;28;20041;-81
2023/01/07 11:27:33;;;;;;;0.50;0.50;;;11.60;99.90;;;;;;4978285;28;20053;-82
2023/01/07 11:30:02;;;;;;;0.50;0.50;;;11.60;99.90;;;;;;4948214;28;21006;-81
2023/01/07 11:32:39;;;;;;;0.52;0.52;;;11.60;99.90;;;;;;4970375;28;20080;-81
2023/01/07 11:35:07;;;;;;;0.50;0.50;;;11.60;99.90;;;;;;4965742;28;20052;-80
2023/01/07 11:37:41;;;;;;;0.50;0.50;;;11.60;99.90;;;;;;4973148;28;20130;-81
2023/01/07 11:40:13;;;;;;;0.50;0.50;;;11.70;99.90;;;;;;4979288;28;20488;-80
2023/01/07 11:43:10;;;;;;;0.50;0.50;;;11.70;99.90;;;;;;4958276;28;20435;-81
2023/01/07 11:45:51;;;;;;;0.50;0.50;;;11.70;99.90;;;;;;4953548;28;20052;-81
2023/01/07 11:48:28;;;;;;;0.60;0.60;;;11.80;99.90;;;;;;4980863;28;20049;-81
2023/01/07 11:51:14;;;;;;;0.50;0.50;;;11.80;99.90;;;;;;4976036;28;21039;-81
2023/01/07 11:53:48;;;;;;;0.50;0.50;;;11.90;99.90;;;;;;4945756;28;20784;-81
2023/01/07 11:56:20;;;;;;;0.50;0.50;;;11.90;99.90;;;;;;4962477;28;20438;-80
2023/01/07 11:59:15;;;;;;;0.60;0.60;;;11.90;99.90;;;;;;4980768;28;20053;-81
2023/01/07 12:01:42;;;;;;;0.50;0.50;;;11.90;99.90;;;;;;4958035;28;20048;-81
2023/01/07 12:04:22;;;;;;;0.50;0.50;;;12.00;99.90;;;;;;4966618;28;20087;-81
2023/01/07 12:06:51;;;;;;;0.60;0.60;;;12.10;99.90;;;;;;4996805;28;20643;-80
2023/01/07 12:09:30;;;;;;;0.50;0.50;;;12.10;99.90;;;;;;4993703;28;20053;-81
2023/01/07 12:12:33;;;;;;;0.50;0.50;;;12.20;99.90;;;;;;4953747;28;20056;-81
2023/01/07 12:15:17;;;;;;;0.50;0.50;;;12.20;99.90;;;;;;4971338;28;20563;-82
2023/01/07 12:17:47;;;;;;;0.60;0.60;;;12.30;99.90;;;;;;4960114;28;20053;-81
2023/01/07 12:20:38;;;;;;;0.50;0.50;;;12.30;99.90;;;;;;4978521;28;20060;-80
2023/01/07 12:23:36;;;;;;;0.50;0.50;;;12.50;99.90;;;;;;4969584;28;20812;-82
2023/01/07 12:26:07;;;;;;;0.50;0.50;;;12.60;99.90;;;;;;4920754;28;20567;-81
2023/01/07 12:28:45;;;;;;;0.50;0.50;;;12.60;99.90;;;;;;4961956;28;20106;-81
2023/01/07 12:31:37;;;;;;;0.50;0.50;;;12.80;99.90;;;;;;4972167;28;20545;-82
2023/01/07 12:34:40;;;;;;;0.50;0.50;;;12.80;99.90;;;;;;4926740;28;20840;-81
2023/01/07 12:37:33;;;;;;;0.50;0.50;;;12.80;99.90;;;;;;4979194;28;20083;-80
2023/01/07 12:40:09;;;;;;;0.50;0.50;;;12.80;99.90;;;;;;4981457;28;20389;-80
2023/01/07 12:42:42;;;;;;;0.50;0.50;;;12.60;99.90;;;;;;4961333;28;20522;-82
2023/01/07 12:45:38;;;;;;;0.50;0.50;;;12.60;99.90;;;;;;4973768;28;20072;-80
2023/01/07 12:48:10;;;;;;;0.50;0.50;;;12.70;99.90;;;;;;4968603;28;20057;-80
2023/01/07 12:50:43;;;;;;;0.50;0.50;;;12.50;99.90;;;;;;4975471;28;20744;-82
2023/01/07 12:53:22;;;;;;;0.50;0.50;;;12.30;99.90;;;;;;4973002;28;20045;-81
2023/01/07 12:55:53;;;;;;;0.50;0.50;;;12.30;99.90;;;;;;4973662;28;20127;-81
2023/01/07 12:58:40;;;;;;;0.50;0.50;;;12.30;99.90;;;;;;4977829;28;20235;-80
2023/01/07 13:01:28;;;;;;;0.50;0.50;;;12.20;99.90;;;;;;4956926;28;20056;-81
2023/01/07 13:04:05;;;;;;;0.50;0.50;;;12.20;99.90;;;;;;4983498;28;20052;-80
2023/01/07 13:06:45;;;;;;;0.50;0.50;;;12.20;99.90;;;;;;4978859;28;20037;-81
2023/01/07 13:09:36;;;;;;;0.50;0.50;;;12.20;99.90;;;;;;4941815;28;20086;-81
2023/01/07 13:15:02;;;;;;;0.50;0.50;;;12.20;99.90;;;;;;4951048;28;20060;-80